Time;durP1;ratioP1;P1;durP2;ratioP2;P2;SDS_P1;SDS_P2;PMS_P1;PMS_P2;Temp;Humidity;BMP_temperature;BMP_pressure;BME280_temperature;BME280_humidity;BME280_pressure;Samples;Min_cycle;Max_cycle;Signal;HPM_P1;HPM_P2
2022/09/15 00:00:03;;;;;;;3.97;2.05;;;;;;;15.66;77.33;100596.88;6216301;23;20456;-83
2022/09/15 00:02:28;;;;;;;3.38;2.08;;;;;;;15.65;78.13;100595.28;6243654;23;20443;-83
2022/09/15 00:04:54;;;;;;;4.68;2.80;;;;;;;15.76;77.03;100601.63;6243487;23;20015;-82
2022/09/15 00:07:19;;;;;;;3.17;1.92;;;;;;;15.83;76.39;100595.09;6244030;23;20016;-82
2022/09/15 00:09:45;;;;;;;2.10;1.90;;;;;;;15.89;75.47;100590.59;6247554;23;20012;-83
2022/09/15 00:12:10;;;;;;;4.72;2.30;;;;;;;15.78;76.87;100599.19;6221983;23;20048;-83
2022/09/15 00:14:35;;;;;;;5.13;2.35;;;;;;;15.68;77.43;100600.06;6244913;23;20335;-83
2022/09/15 00:17:01;;;;;;;5.22;2.58;;;;;;;15.76;76.84;100590.34;6219539;23;20000;-82
2022/09/15 00:19:26;;;;;;;5.20;1.90;;;;;;;15.77;77.41;100588.31;6217551;23;20012;-84
2022/09/15 00:21:51;;;;;;;2.40;2.20;;;;;;;15.84;76.18;100591.06;6216607;23;20008;-82
2022/09/15 00:24:17;;;;;;;4.43;2.33;;;;;;;15.79;76.91;100594.34;6242031;23;20006;-82
2022/09/15 00:26:43;;;;;;;3.20;1.83;;;;;;;15.87;75.74;100590.22;6242225;23;20284;-82
2022/09/15 00:29:09;;;;;;;5.45;2.20;;;;;;;15.77;76.63;100585.50;6244095;23;20466;-82
2022/09/15 00:31:34;;;;;;;3.85;2.00;;;;;;;15.81;76.32;100586.25;6215953;23;20432;-82
2022/09/15 00:34:04;;;;;;;3.42;2.20;;;;;;;15.89;76.36;100590.59;6244292;23;20057;-82
2022/09/15 00:36:29;;;;;;;4.63;2.20;;;;;;;15.84;77.04;100597.50;6243249;23;20380;-82
2022/09/15 00:38:56;;;;;;;5.47;2.45;;;;;;;15.86;77.47;100594.28;6243791;23;20008;-82
2022/09/15 00:41:23;;;;;;;3.70;2.45;;;;;;;15.89;76.55;100593.41;6244542;23;20012;-82
2022/09/15 00:44:25;;;;;;;2.58;2.38;;;;;;;15.75;79.19;100593.59;6244100;23;20007;-82
2022/09/15 00:46:55;;;;;;;7.03;2.60;;;;;;;15.70;77.79;100613.78;6218038;23;20020;-82
2022/09/15 00:49:28;;;;;;;5.05;2.10;;;;;;;15.83;78.59;100614.84;6216341;23;20012;-82
2022/09/15 00:52:11;;;;;;;3.35;2.60;;;;;;;15.66;78.14;100613.81;6218591;23;20341;-82
2022/09/15 00:54:47;;;;;;;4.53;2.72;;;;;;;15.77;77.73;100614.53;6213453;23;20008;-82
2022/09/15 00:57:24;;;;;;;4.15;2.38;;;;;;;15.85;76.66;100612.41;6244208;23;20015;-82
2022/09/15 00:59:52;;;;;;;4.95;2.67;;;;;;;15.83;78.86;100606.38;6244018;23;20011;-82
2022/09/15 01:02:22;;;;;;;5.40;2.30;;;;;;;15.81;78.71;100614.47;6241232;23;20038;-82
2022/09/15 01:04:49;;;;;;;5.10;2.83;;;;;;;15.79;77.98;100611.28;6242089;23;20016;-82
2022/09/15 01:07:20;;;;;;;6.28;2.63;;;;;;;15.87;78.40;100607.16;6217503;23;20016;-82
2022/09/15 01:09:53;;;;;;;5.40;3.80;;;;;;;15.85;79.47;100609.59;6215541;23;20008;-82
2022/09/15 01:12:20;;;;;;;4.60;3.33;;;;;;;15.60;83.60;100598.56;6218307;23;20043;-82
2022/09/15 01:14:46;;;;;;;6.03;4.65;;;;;;;15.51;84.51;100599.06;6215767;23;20081;-82
2022/09/15 01:17:45;;;;;;;8.32;4.18;;;;;;;15.80;82.04;100618.53;6244347;23;20079;-82
2022/09/15 01:20:41;;;;;;;8.25;5.85;;;;;;;15.51;82.94;100618.78;6244247;23;20119;-82
2022/09/15 01:23:37;;;;;;;4.90;2.97;;;;;;;15.52;87.39;100620.41;6241677;23;20016;-82
2022/09/15 01:26:38;;;;;;;6.60;4.30;;;;;;;15.48;86.21;100624.50;6240089;23;20049;-82
2022/09/15 01:29:41;;;;;;;5.40;3.00;;;;;;;15.78;80.46;100626.63;6240761;23;20020;-82
2022/09/15 01:35:54;;;;;;;3.92;2.35;;;;;;;15.83;79.42;100612.03;6178092;23;20016;-82
2022/09/15 01:38:35;;;;;;;3.55;2.90;;;;;;;15.91;78.74;100615.59;6240272;23;20012;-82
2022/09/15 01:41:08;;;;;;;7.53;4.50;;;;;;;15.84;82.17;100614.44;6214305;23;20380;-82
2022/09/15 01:43:40;;;;;;;7.93;3.55;;;;;;;15.79;81.69;100606.44;6243443;23;20008;-83
2022/09/15 01:46:06;;;;;;;5.13;2.47;;;;;;;15.77;79.85;100619.34;6244052;23;20416;-82
2022/09/15 01:48:32;;;;;;;6.95;2.83;;;;;;;15.83;79.41;100612.03;6213763;23;20035;-82
2022/09/15 01:51:02;;;;;;;8.02;5.07;;;;;;;15.70;84.68;100610.94;6215100;23;19996;-83
2022/09/15 01:53:28;;;;;;;5.93;2.70;;;;;;;15.85;79.00;100613.25;6214446;23;20012;-82
2022/09/15 01:56:05;;;;;;;7.28;2.90;;;;;;;15.91;80.04;100619.19;6214992;23;20436;-82
2022/09/15 01:58:32;;;;;;;6.55;2.65;;;;;;;15.93;79.30;100616.75;6213746;23;20057;-82
2022/09/15 02:01:05;;;;;;;3.72;2.50;;;;;;;15.92;79.44;100617.19;6213965;23;20083;-82
2022/09/15 02:03:38;;;;;;;4.95;2.20;;;;;;;15.91;79.46;100619.19;6213686;23;20106;-82
2022/09/15 02:06:13;;;;;;;2.95;2.20;;;;;;;15.97;78.57;100616.72;6239492;23;20441;-82
2022/09/15 02:08:48;;;;;;;5.03;2.45;;;;;;;15.97;79.65;100623.16;6213612;23;20004;-82
2022/09/15 02:11:17;;;;;;;4.40;3.67;;;;;;;15.95;79.51;100622.78;6214517;23;20050;-82
2022/09/15 02:13:51;;;;;;;5.05;2.55;;;;;;;15.94;79.43;100624.03;6214644;23;20016;-82
2022/09/15 02:16:23;;;;;;;3.97;2.15;;;;;;;15.93;79.78;100616.75;6215350;23;20040;-83
2022/09/15 02:19:07;;;;;;;5.82;3.05;;;;;;;15.71;81.31;100609.75;6243598;23;20016;-82
2022/09/15 02:21:45;;;;;;;6.38;1.85;;;;;;;15.83;80.26;100623.31;6244461;23;20000;-82
2022/09/15 02:24:17;;;;;;;6.22;2.08;;;;;;;15.86;80.31;100619.69;6242665;23;20329;-83
2022/09/15 02:26:45;;;;;;;5.03;2.80;;;;;;;15.84;82.22;100624.94;6216382;23;20020;-82
2022/09/15 02:29:15;;;;;;;5.97;2.47;;;;;;;15.88;79.67;100620.06;6215829;23;20563;-82
2022/09/15 02:31:42;;;;;;;3.55;1.88;;;;;;;15.93;78.87;100622.41;6243536;23;20405;-82
2022/09/15 02:34:14;;;;;;;4.45;2.30;;;;;;;15.96;79.88;100623.56;6216239;23;20039;-82
2022/09/15 02:36:40;;;;;;;;;;;;;;;15.96;79.53;100626.41;6217957;23;20039;-82
2022/09/15 02:39:10;;;;;;;2.78;1.90;;;;;;;15.92;79.36;100620.03;6242530;23;20316;-81
2022/09/15 02:41:36;;;;;;;4.18;1.85;;;;;;;15.87;82.14;100621.25;6214242;23;20441;-82
2022/09/15 02:44:02;;;;;;;6.60;2.20;;;;;;;15.92;78.94;100634.94;6243356;23;20262;-83
2022/09/15 02:46:28;;;;;;;6.07;1.70;;;;;;;15.93;79.72;100622.41;6243014;23;20051;-83
2022/09/15 02:48:55;;;;;;;3.72;1.40;;;;;;;15.93;79.95;100630.06;6213257;23;20012;-82
2022/09/15 02:51:21;;;;;;;5.78;1.95;;;;;;;15.99;78.96;100634.03;6241183;23;20008;-83
2022/09/15 02:53:47;;;;;;;3.78;1.70;;;;;;;15.92;81.02;100640.56;6240159;23;20091;-83
2022/09/15 02:56:15;;;;;;;6.05;1.98;;;;;;;15.65;84.01;100638.41;6212961;23;20004;-83
2022/09/15 02:58:41;;;;;;;5.53;1.90;;;;;;;15.61;81.30;100646.09;6240505;23;20363;-83
2022/09/15 03:01:14;;;;;;;7.05;2.83;;;;;;;15.61;81.51;100643.28;6240289;23;20008;-83
2022/09/15 03:03:41;;;;;;;8.27;2.53;;;;;;;15.58;81.28;100641.31;6215056;23;20013;-82
2022/09/15 03:06:16;;;;;;;7.32;1.88;;;;;;;15.47;83.07;100640.59;6243187;23;20083;-83
2022/09/15 03:08:50;;;;;;;3.92;1.30;;;;;;;15.48;82.28;100636.56;6241363;23;20019;-83
2022/09/15 03:11:17;;;;;;;4.38;1.60;;;;;;;15.57;81.65;100641.72;6217007;23;20000;-83
2022/09/15 03:13:42;;;;;;;4.60;2.08;;;;;;;15.74;80.13;100649.22;6242334;23;20083;-83
2022/09/15 03:16:12;;;;;;;4.97;1.27;;;;;;;15.52;83.62;100640.16;6216627;23;20062;-83
2022/09/15 03:18:38;;;;;;;4.47;1.33;;;;;;;15.67;80.13;100651.31;6215551;23;20667;-83
2022/09/15 03:21:05;;;;;;;4.03;1.60;;;;;;;15.61;80.76;100657.38;6218443;23;20016;-83
2022/09/15 03:23:31;;;;;;;3.42;1.38;;;;;;;15.51;82.35;100652.66;6244352;23;20015;-82
2022/09/15 03:25:58;;;;;;;6.65;2.08;;;;;;;15.51;82.41;100652.66;6242925;23;20016;-81
2022/09/15 03:28:25;;;;;;;5.65;1.70;;;;;;;15.57;81.39;100644.53;6217398;23;20000;-85
2022/09/15 03:30:51;;;;;;;8.88;2.15;;;;;;;15.51;81.88;100649.03;6217628;23;20008;-85
2022/09/15 03:33:17;;;;;;;4.35;1.30;;;;;;;15.39;81.96;100653.16;6246128;23;20004;-84
2022/09/15 03:35:48;;;;;;;9.60;1.73;;;;;;;15.38;81.17;100648.75;6245358;23;20309;-84
2022/09/15 03:38:14;;;;;;;3.33;1.38;;;;;;;15.38;80.93;100663.66;6218395;23;20318;-84
2022/09/15 03:40:41;;;;;;;8.70;1.48;;;;;;;15.41;80.31;100651.53;6217848;23;20103;-84
2022/09/15 03:43:08;;;;;;;6.03;1.42;;;;;;;15.56;79.95;100643.75;6216627;23;20018;-84
2022/09/15 03:45:33;;;;;;;4.57;1.38;;;;;;;15.64;79.27;100648.09;6217488;23;20059;-84
2022/09/15 03:47:58;;;;;;;6.47;1.20;;;;;;;15.52;80.32;100642.19;6244425;23;20084;-84
2022/09/15 03:50:24;;;;;;;5.88;1.42;;;;;;;15.50;80.03;100645.41;6244795;23;20069;-84
2022/09/15 03:52:49;;;;;;;10.98;1.95;;;;;;;15.48;80.02;100647.06;6218471;23;20054;-84
2022/09/15 03:55:15;;;;;;;3.85;1.17;;;;;;;15.47;79.49;100651.09;6216828;23;20491;-85
2022/09/15 03:57:40;;;;;;;3.83;1.15;;;;;;;15.34;79.75;100645.16;6218488;23;20004;-84
2022/09/15 04:00:07;;;;;;;11.02;1.85;;;;;;;15.39;79.72;100644.69;6243403;23;20087;-84
2022/09/15 04:02:32;;;;;;;3.53;1.60;;;;;;;15.36;79.70;100640.69;6245981;23;20467;-83
2022/09/15 04:04:58;;;;;;;5.95;1.60;;;;;;;15.46;79.38;100636.19;6246159;23;20091;-84
2022/09/15 04:07:24;;;;;;;2.00;0.98;;;;;;;15.59;78.33;100647.75;6220513;23;20013;-84
2022/09/15 04:09:50;;;;;;;5.80;1.17;;;;;;;15.65;78.36;100640.44;6250598;23;20015;-84
2022/09/15 04:12:16;;;;;;;6.45;2.22;;;;;;;15.54;79.05;100648.22;6223301;23;20383;-84
2022/09/15 04:14:41;;;;;;;3.42;1.17;;;;;;;15.72;78.49;100650.88;6247997;23;20058;-84
2022/09/15 04:17:07;;;;;;;3.92;1.10;;;;;;;15.72;77.98;100648.03;6246830;23;20444;-84
2022/09/15 04:19:32;;;;;;;7.20;1.50;;;;;;;15.68;78.48;100648.03;6218211;23;20330;-84
2022/09/15 04:22:00;;;;;;;4.88;1.20;;;;;;;15.63;78.70;100649.31;6217403;23;20433;-84
2022/09/15 04:24:26;;;;;;;3.85;1.10;;;;;;;15.68;78.24;100647.25;6215786;23;20015;-84
2022/09/15 04:26:51;;;;;;;4.38;1.23;;;;;;;15.71;78.08;100649.25;6243519;23;20012;-84
2022/09/15 04:29:17;;;;;;;3.58;1.00;;;;;;;15.73;77.43;100647.63;6240824;23;20012;-84
2022/09/15 04:31:43;;;;;;;3.40;1.33;;;;;;;15.74;77.28;100639.97;6243375;23;20063;-84
2022/09/15 04:34:09;;;;;;;7.57;1.25;;;;;;;15.78;77.44;100637.91;6240342;23;20424;-84
2022/09/15 04:36:34;;;;;;;3.20;0.95;;;;;;;15.77;77.27;100634.28;6241306;23;20012;-84
2022/09/15 04:38:59;;;;;;;3.05;1.00;;;;;;;15.78;77.62;100649.19;6240647;23;20453;-84
2022/09/15 04:41:25;;;;;;;6.72;1.30;;;;;;;15.78;77.13;100640.72;6242069;23;20008;-83
2022/09/15 04:43:51;;;;;;;5.68;1.52;;;;;;;15.75;77.23;100636.72;6215531;23;20475;-84
2022/09/15 04:46:17;;;;;;;5.85;1.48;;;;;;;15.76;76.87;100629.84;6239443;23;20253;-84
2022/09/15 04:48:44;;;;;;;5.05;1.65;;;;;;;15.75;77.05;100639.56;6238845;23;20035;-84
2022/09/15 04:51:12;;;;;;;4.15;1.35;;;;;;;15.70;77.30;100634.31;6238041;23;20360;-84
2022/09/15 04:53:38;;;;;;;6.13;1.88;;;;;;;15.72;77.15;100639.56;6241003;23;20016;-84
2022/09/15 04:56:05;;;;;;;6.78;2.00;;;;;;;15.67;77.23;100634.38;6213484;23;20510;-84
2022/09/15 04:58:35;;;;;;;5.68;1.30;;;;;;;15.76;77.07;100648.81;6243144;23;20027;-84
2022/09/15 05:01:06;;;;;;;4.07;1.30;;;;;;;15.72;76.78;100648.03;6243684;23;20075;-84
2022/09/15 05:03:35;;;;;;;6.00;1.20;;;;;;;15.72;76.84;100642.41;6242005;23;20016;-84
2022/09/15 05:06:00;;;;;;;2.13;1.10;;;;;;;15.65;77.24;100641.22;6212903;23;20012;-84
2022/09/15 05:08:26;;;;;;;5.63;1.20;;;;;;;15.73;76.56;100641.19;6214997;23;20012;-84
2022/09/15 05:10:52;;;;;;;8.93;1.35;;;;;;;15.65;76.90;100641.22;6242357;23;20008;-84
2022/09/15 05:13:17;;;;;;;3.63;1.35;;;;;;;15.73;76.77;100644.03;6215484;23;20011;-84
2022/09/15 05:15:42;;;;;;;7.53;1.10;;;;;;;15.65;76.79;100634.78;6214108;23;20008;-84
2022/09/15 05:18:08;;;;;;;2.75;0.93;;;;;;;15.63;77.09;100635.19;6241410;23;20065;-84
2022/09/15 05:20:33;;;;;;;3.97;1.30;;;;;;;15.67;76.72;100640.81;6240259;23;20015;-84
2022/09/15 05:22:58;;;;;;;5.00;1.17;;;;;;;15.64;76.87;100650.09;6239980;23;20485;-84
2022/09/15 05:25:24;;;;;;;4.55;1.60;;;;;;;15.63;76.07;100646.47;6239102;23;20012;-84
2022/09/15 05:27:49;;;;;;;6.72;1.60;;;;;;;15.50;75.86;100644.63;6239212;23;20009;-84
2022/09/15 05:30:14;;;;;;;7.10;1.38;;;;;;;15.51;76.16;100647.00;6212809;23;20391;-84
2022/09/15 05:32:40;;;;;;;2.75;1.23;;;;;;;15.56;76.19;100654.25;6215544;23;20085;-84
2022/09/15 05:35:06;;;;;;;7.47;1.40;;;;;;;15.62;75.67;100644.91;6212076;23;20115;-84
2022/09/15 05:37:32;;;;;;;6.25;1.27;;;;;;;15.66;75.15;100636.38;6240423;23;20328;-84
2022/09/15 05:39:58;;;;;;;7.65;1.45;;;;;;;15.58;74.96;100646.13;6239550;23;20345;-84
2022/09/15 05:42:24;;;;;;;3.47;1.00;;;;;;;15.58;74.69;100641.31;6213324;23;20012;-84
2022/09/15 05:44:49;;;;;;;7.15;1.20;;;;;;;15.38;75.62;100643.91;6212352;23;20556;-84
2022/09/15 05:47:15;;;;;;;8.85;1.75;;;;;;;15.48;73.92;100647.84;6235702;23;20011;-84
2022/09/15 05:49:40;;;;;;;4.65;1.15;;;;;;;15.61;74.36;100643.28;6239327;23;20023;-84
2022/09/15 05:52:06;;;;;;;3.65;1.30;;;;;;;15.59;74.80;100651.34;6213336;23;20448;-84
2022/09/15 05:54:31;;;;;;;4.25;1.20;;;;;;;15.63;74.58;100654.16;6237600;23;20016;-84
2022/09/15 05:56:57;;;;;;;7.85;1.80;;;;;;;15.38;72.89;100648.75;6212224;23;20011;-84
2022/09/15 05:59:22;;;;;;;7.65;1.55;;;;;;;15.51;74.61;100649.81;6234183;23;20412;-84
2022/09/15 06:01:47;;;;;;;5.65;1.63;;;;;;;15.50;74.43;100651.06;6235580;23;20072;-84
2022/09/15 06:04:13;;;;;;;4.25;1.13;;;;;;;15.62;73.76;100658.19;6236473;23;20380;-82
2022/09/15 06:06:38;;;;;;;6.43;1.77;;;;;;;15.61;73.73;100662.22;6206090;23;20015;-80
2022/09/15 06:09:04;;;;;;;8.82;2.13;;;;;;;15.65;72.45;100663.78;6237982;23;20042;-81
2022/09/15 06:11:32;;;;;;;8.07;1.67;;;;;;;15.75;73.04;100652.88;6213146;23;20032;-83
2022/09/15 06:13:59;;;;;;;7.40;1.40;;;;;;;15.70;72.02;100664.56;6241783;23;20309;-83
2022/09/15 06:16:25;;;;;;;8.85;1.83;;;;;;;15.68;71.75;100658.53;6240870;23;20016;-84
2022/09/15 06:18:52;;;;;;;5.93;1.60;;;;;;;15.58;72.29;100658.25;6215740;23;20343;-83
2022/09/15 06:21:23;;;;;;;6.28;1.73;;;;;;;15.59;72.70;100665.47;6239440;23;20011;-84
2022/09/15 06:23:53;;;;;;;9.77;1.55;;;;;;;15.55;72.46;100661.88;6244456;23;20044;-84
2022/09/15 06:26:19;;;;;;;4.60;1.33;;;;;;;15.57;72.67;100672.75;6216469;23;20352;-84
2022/09/15 06:28:53;;;;;;;12.65;2.65;;;;;;;15.62;71.60;100669.47;6212531;23;20008;-83
2022/09/15 06:31:19;;;;;;;5.93;1.45;;;;;;;15.64;72.23;100667.84;6241090;23;20395;-84
2022/09/15 06:33:47;;;;;;;6.07;1.85;;;;;;;15.67;72.34;100659.78;6213895;23;20444;-84
2022/09/15 06:36:13;;;;;;;4.25;1.45;;;;;;;15.61;72.14;100668.66;6216562;23;20027;-84
2022/09/15 06:38:39;;;;;;;12.10;1.63;;;;;;;15.59;72.02;100665.47;6215095;23;19996;-84
2022/09/15 06:41:06;;;;;;;3.80;1.35;;;;;;;15.61;71.69;100674.31;6214074;23;20085;-83
2022/09/15 06:43:32;;;;;;;9.40;1.90;;;;;;;15.79;72.10;100673.34;6215209;23;20011;-86
2022/09/15 06:46:13;;;;;;;3.13;1.13;;;;;;;15.88;71.60;100678.53;6218886;23;20388;-87
2022/09/15 06:48:40;;;;;;;7.63;1.95;;;;;;;15.71;71.33;100678.25;6217443;23;20352;-86
2022/09/15 06:51:07;;;;;;;6.45;1.13;;;;;;;15.79;72.16;100687.47;6244226;23;20318;-87
2022/09/15 06:53:35;;;;;;;6.38;1.60;;;;;;;15.68;72.16;100695.22;6245298;23;20340;-85
2022/09/15 06:56:02;;;;;;;7.25;2.17;;;;;;;15.62;71.90;100695.69;6244376;23;20444;-85
2022/09/15 06:58:28;;;;;;;5.32;1.65;;;;;;;15.70;72.60;100701.25;6245144;23;20004;-86
2022/09/15 07:01:03;;;;;;;3.30;1.20;;;;;;;15.73;72.49;100703.28;6243503;23;20055;-87
2022/09/15 07:03:28;;;;;;;7.45;1.42;;;;;;;15.64;73.43;100701.72;6217984;23;20004;-87
2022/09/15 07:05:53;;;;;;;7.90;1.98;;;;;;;15.95;72.50;100709.50;6211691;23;20074;-88
2022/09/15 07:08:19;;;;;;;3.63;1.27;;;;;;;15.90;72.01;100719.22;6239875;23;20043;-86
2022/09/15 07:10:45;;;;;;;5.15;1.33;;;;;;;16.12;71.55;100707.69;6248098;23;20083;-87
2022/09/15 07:13:11;;;;;;;6.32;1.50;;;;;;;16.74;68.54;100719.84;6217101;23;20428;-87
2022/09/15 07:15:37;;;;;;;5.90;1.52;;;;;;;16.67;65.73;100726.41;6218345;23;20020;-84
2022/09/15 07:18:03;;;;;;;5.28;1.23;;;;;;;16.39;68.50;100722.72;6216277;23;20090;-88
2022/09/15 07:20:29;;;;;;;5.93;2.10;;;;;;;16.66;67.76;100730.47;6216361;23;20004;-88
2022/09/15 07:22:54;;;;;;;4.63;1.30;;;;;;;16.91;67.91;100718.03;6243977;23;20393;-89
2022/09/15 07:25:20;;;;;;;5.82;1.33;;;;;;;17.17;65.06;100720.06;6242877;23;20015;-88
2022/09/15 07:27:45;;;;;;;7.80;1.50;;;;;;;17.81;65.93;100711.72;6242659;23;20040;-89
2022/09/15 07:30:12;;;;;;;5.03;1.38;;;;;;;17.48;67.60;100717.97;6244709;23;20008;-90
2022/09/15 07:32:38;;;;;;;3.08;0.90;;;;;;;17.71;64.82;100712.72;6240798;23;20846;-86
2022/09/15 07:35:04;;;;;;;8.18;1.20;;;;;;;17.41;67.58;100720.09;6242154;23;20008;-86
2022/09/15 07:37:32;;;;;;;4.03;1.45;;;;;;;17.56;64.80;100734.81;6212671;23;20020;-89
2022/09/15 07:39:57;;;;;;;6.85;1.27;;;;;;;16.79;68.05;100731.47;6242091;23;20026;-89
2022/09/15 07:42:22;;;;;;;8.93;1.70;;;;;;;17.52;66.48;100729.22;6214288;23;20016;-85
2022/09/15 07:44:47;;;;;;;5.90;2.25;;;;;;;17.14;68.18;100726.59;6213136;23;20016;-89
2022/09/15 07:47:13;;;;;;;6.30;1.20;;;;;;;17.84;65.78;100722.22;6242385;23;20035;-90
2022/09/15 07:49:38;;;;;;;4.25;2.17;;;;;;;17.41;64.94;100734.25;6214244;23;20484;-87
2022/09/15 07:52:04;;;;;;;3.72;1.05;;;;;;;16.71;67.59;100741.28;6241179;23;20007;-81
2022/09/15 07:54:29;;;;;;;5.32;1.90;;;;;;;16.41;68.54;100740.03;6208938;23;20008;-81
2022/09/15 07:56:54;;;;;;;4.43;1.40;;;;;;;16.25;69.57;100748.28;6208551;23;20018;-82
2022/09/15 07:59:19;;;;;;;4.88;1.58;;;;;;;16.15;70.33;100750.03;6213945;23;20027;-81
2022/09/15 08:01:45;;;;;;;4.72;1.48;;;;;;;16.21;70.15;100739.06;6212015;23;20012;-82
2022/09/15 08:04:10;;;;;;;5.13;1.90;;;;;;;16.17;70.43;100750.41;6214041;23;20054;-81
2022/09/15 08:06:36;;;;;;;8.65;1.45;;;;;;;16.21;70.54;100741.88;6243933;23;20004;-82
2022/09/15 08:09:01;;;;;;;7.72;1.40;;;;;;;16.18;70.52;100740.69;6218476;23;20012;-82
2022/09/15 08:11:28;;;;;;;6.43;1.27;;;;;;;16.09;70.50;100742.44;6245021;23;20026;-82
2022/09/15 08:13:53;;;;;;;7.63;1.30;;;;;;;16.22;70.19;100730.16;6216663;23;20008;-81
2022/09/15 08:16:23;;;;;;;2.55;1.60;;;;;;;16.21;70.87;100733.41;6247205;23;20063;-82
2022/09/15 08:18:51;;;;;;;6.22;1.40;;;;;;;16.14;70.27;100727.84;6219633;23;20020;-82
2022/09/15 08:21:19;;;;;;;5.93;1.73;;;;;;;16.00;69.38;100735.25;6244714;23;20012;-81
2022/09/15 08:23:48;;;;;;;5.72;1.75;;;;;;;16.14;70.46;100736.31;6239948;23;20388;-82
2022/09/15 08:26:13;;;;;;;4.35;0.88;;;;;;;16.19;70.37;100741.50;6238754;23;20041;-82
2022/09/15 08:28:39;;;;;;;3.50;1.20;;;;;;;16.31;70.69;100743.00;6210434;23;20004;-82
2022/09/15 08:31:07;;;;;;;8.52;1.92;;;;;;;16.41;69.94;100737.22;6241419;23;20008;-82
2022/09/15 08:33:32;;;;;;;5.43;1.05;;;;;;;16.34;69.24;100734.47;6238797;23;20119;-82
2022/09/15 08:36:04;;;;;;;4.57;1.17;;;;;;;16.48;70.10;100749.66;6240747;23;20036;-81
2022/09/15 08:38:31;;;;;;;4.03;1.25;;;;;;;16.72;68.64;100751.38;6215681;23;20080;-82
2022/09/15 08:41:05;;;;;;;3.22;1.45;;;;;;;17.18;67.64;100749.97;6214439;23;20016;-85
2022/09/15 08:43:55;;;;;;;6.40;1.10;;;;;;;17.01;67.24;100751.00;6209752;23;20010;-85
2022/09/15 08:46:28;;;;;;;4.28;1.10;;;;;;;17.06;68.46;100761.84;6239102;23;20016;-86
2022/09/15 08:49:02;;;;;;;12.23;2.75;;;;;;;16.58;70.86;100768.50;6213644;23;20000;-91
2022/09/15 08:51:42;;;;;;;9.25;1.55;;;;;;;16.48;72.45;100780.72;6240481;23;20019;-87
2022/09/15 08:54:15;;;;;;;3.63;1.40;;;;;;;16.37;74.03;100784.47;6212140;23;20012;-85
2022/09/15 08:56:42;;;;;;;6.75;1.52;;;;;;;16.33;74.11;100789.34;6240496;23;20012;-85
2022/09/15 08:59:18;;;;;;;5.93;1.60;;;;;;;16.22;75.35;100795.13;6244296;23;20408;-86
2022/09/15 09:02:05;;;;;;;4.57;1.25;;;;;;;16.32;75.91;100789.78;6214418;23;20472;-87
2022/09/15 09:04:56;;;;;;;2.55;1.10;;;;;;;16.49;74.60;100788.00;6215285;23;20367;-88
2022/09/15 09:07:47;;;;;;;10.60;1.85;;;;;;;16.35;76.12;100788.94;6212283;23;20023;-87
2022/09/15 09:10:16;;;;;;;5.25;1.00;;;;;;;16.37;77.30;100790.13;6213719;23;20071;-83
2022/09/15 09:13:06;;;;;;;4.78;1.13;;;;;;;16.23;76.96;100790.25;6241431;23;20074;-87
2022/09/15 09:15:53;;;;;;;4.10;1.40;;;;;;;17.41;74.09;100790.81;6215040;23;20388;-84
2022/09/15 09:18:25;;;;;;;9.80;1.40;;;;;;;17.23;73.73;100797.56;6215873;23;20020;-89
2022/09/15 09:21:11;;;;;;;6.53;1.95;;;;;;;16.70;76.90;100789.75;6245434;23;20012;-88
2022/09/15 09:23:52;;;;;;;9.73;1.92;;;;;;;17.04;75.79;100795.41;6242423;23;20483;-89
2022/09/15 09:26:18;;;;;;;5.00;1.45;;;;;;;16.13;77.55;100788.34;6212930;23;20008;-89
2022/09/15 09:28:54;;;;;;;3.83;1.10;;;;;;;16.32;77.07;100787.75;6217119;23;20056;-90
2022/09/15 09:31:23;;;;;;;5.38;1.30;;;;;;;16.43;76.44;100785.63;6216560;23;20035;-90
2022/09/15 09:33:54;;;;;;;5.97;1.33;;;;;;;16.49;76.54;100788.00;6242250;23;20057;-91
2022/09/15 09:36:24;;;;;;;7.95;2.42;;;;;;;16.52;76.30;100792.78;6246105;23;20019;-91
2022/09/15 09:38:50;;;;;;;7.53;1.63;;;;;;;16.60;78.43;100799.97;6245140;23;20403;-92
2022/09/15 09:41:25;;;;;;;8.23;2.20;;;;;;;15.95;80.69;100791.34;6218612;23;20008;-91
2022/09/15 09:43:54;;;;;;;5.38;1.35;;;;;;;15.96;80.42;100790.94;6219344;23;20011;-92
2022/09/15 09:46:20;;;;;;;9.73;1.90;;;;;;;16.12;80.39;100781.13;6245012;23;20024;-92
2022/09/15 09:49:15;;;;;;;4.32;1.42;;;;;;;16.28;79.30;100772.88;6216477;23;20004;-90
2022/09/15 09:51:51;;;;;;;4.68;2.33;;;;;;;16.53;78.05;100792.38;6219026;23;20351;-92
2022/09/15 09:54:19;;;;;;;8.45;1.40;;;;;;;16.45;79.27;100786.00;6218371;23;20008;-90
2022/09/15 09:56:49;;;;;;;7.07;1.70;;;;;;;16.54;79.65;100779.03;6219738;23;20083;-91
2022/09/15 09:59:37;;;;;;;6.60;1.85;;;;;;;16.49;78.61;100771.03;6218835;23;20000;-91
2022/09/15 10:02:06;;;;;;;9.70;3.17;;;;;;;16.66;78.13;100775.69;6219858;23;20004;-92
2022/09/15 10:04:32;;;;;;;4.32;1.70;;;;;;;16.80;77.08;100781.19;6217649;23;20008;-92
2022/09/15 10:06:58;;;;;;;8.13;1.90;;;;;;;16.89;77.93;100771.34;6216877;23;20066;-85
2022/09/15 10:09:23;;;;;;;7.10;1.63;;;;;;;17.49;74.39;100769.69;6243302;23;20115;-87
2022/09/15 10:11:56;;;;;;;10.43;1.60;;;;;;;17.38;73.77;100781.16;6240304;23;20087;-87
2022/09/15 10:14:26;;;;;;;8.80;1.75;;;;;;;17.12;73.84;100781.94;6214850;23;20004;-86
2022/09/15 10:17:11;;;;;;;5.15;1.17;;;;;;;16.86;69.92;100784.31;6242830;23;20030;-79
2022/09/15 10:19:47;;;;;;;5.97;1.52;;;;;;;16.89;70.57;100799.63;6215970;23;20432;-79
2022/09/15 10:22:20;;;;;;;4.10;1.20;;;;;;;16.90;71.16;100793.56;6242058;23;20135;-79
2022/09/15 10:24:46;;;;;;;2.45;1.00;;;;;;;16.83;70.89;100797.28;6241126;23;20325;-79
2022/09/15 10:27:46;;;;;;;7.25;1.50;;;;;;;16.64;72.82;100806.38;6247874;23;20007;-90
2022/09/15 10:30:12;;;;;;;3.75;1.25;;;;;;;16.55;72.74;100797.59;6224190;23;20076;-91
2022/09/15 10:32:38;;;;;;;4.40;1.20;;;;;;;16.48;73.16;100790.00;6245536;23;20004;-91
2022/09/15 10:35:10;;;;;;;8.80;1.40;;;;;;;16.62;72.57;100789.03;6247840;22;20008;-90
2022/09/15 10:37:49;;;;;;;2.78;1.10;;;;;;;16.65;71.93;100774.06;6247748;23;20008;-91
2022/09/15 10:40:49;;;;;;;3.10;1.05;;;;;;;16.77;71.42;100784.81;6220741;23;20425;-90
2022/09/15 10:43:29;;;;;;;8.27;1.52;;;;;;;16.84;70.43;100781.94;6220276;23;20007;-90
2022/09/15 10:46:04;;;;;;;4.97;1.10;;;;;;;16.88;70.82;100783.91;6219493;23;20382;-90
2022/09/15 10:48:47;;;;;;;4.30;0.85;;;;;;;17.01;68.64;100780.09;6247298;23;20008;-90
2022/09/15 10:51:32;;;;;;;2.25;1.00;;;;;;;17.14;69.90;100776.66;6219052;23;20012;-90
2022/09/15 10:54:05;;;;;;;5.35;1.40;;;;;;;16.99;69.43;100782.56;6220042;23;20012;-90
2022/09/15 10:56:39;;;;;;;;;;;;;;;17.16;69.32;100775.03;6218516;23;20015;-91
2022/09/15 10:59:31;;;;;;;6.60;1.20;;;;;;;17.45;66.69;100771.75;6218668;23;19939;-90
2022/09/15 11:02:13;;;;;;;6.75;1.75;;;;;;;17.61;68.00;100763.44;6219678;23;20016;-89
2022/09/15 11:05:10;;;;;;;3.10;1.42;;;;;;;17.75;67.38;100770.06;6220821;23;20004;-90
2022/09/15 11:07:59;;;;;;;7.43;1.50;;;;;;;18.15;65.32;100765.38;6243305;23;20012;-92
2022/09/15 11:11:00;;;;;;;9.15;1.58;;;;;;;17.82;62.75;100764.31;6218377;23;20023;-90
2022/09/15 11:14:10;;;;;;;3.88;1.20;;;;;;;17.88;65.81;100768.28;6182953;23;20017;-90
2022/09/15 11:16:51;;;;;;;6.60;1.33;;;;;;;17.85;63.93;100769.13;6153539;23;20012;-89
2022/09/15 11:19:34;;;;;;;3.45;0.77;;;;;;;17.91;65.49;100781.56;6245849;22;20558;-90
2022/09/15 11:22:07;;;;;;;5.40;1.33;;;;;;;17.93;65.71;100783.97;6244707;23;20012;-90
2022/09/15 11:24:46;;;;;;;2.85;0.90;;;;;;;17.80;66.14;100775.25;6247546;23;20459;-91
2022/09/15 11:27:24;;;;;;;3.40;1.02;;;;;;;17.92;63.91;100771.03;6247705;23;20012;-90
2022/09/15 11:30:18;;;;;;;4.97;1.05;;;;;;;18.48;61.34;100777.66;6220100;23;20011;-90
2022/09/15 11:32:50;;;;;;;6.35;1.27;;;;;;;18.85;60.76;100772.09;6222195;23;20012;-90
2022/09/15 11:35:53;;;;;;;4.63;1.20;;;;;;;18.82;61.57;100784.31;6222677;23;20090;-90
2022/09/15 11:38:25;;;;;;;7.68;1.00;;;;;;;18.60;60.17;100781.09;6220836;23;20016;-89
2022/09/15 11:41:12;;;;;;;11.35;1.50;;;;;;;17.80;64.46;100793.03;6247286;23;20073;-87
2022/09/15 11:44:19;;;;;;;6.20;1.27;;;;;;;17.54;66.29;100811.66;6220709;23;20440;-88